sensor_id;sensor_type;location;lat;lon;timestamp;temperature;humidity
69546;SHT31;56766;52.260;20.746;2023-11-21T00:01:58;0.40;93.65
69546;SHT31;56766;52.260;20.746;2023-11-21T00:04:25;0.38;93.62
69546;SHT31;56766;52.260;20.746;2023-11-21T00:06:51;0.37;93.69
69546;SHT31;56766;52.260;20.746;2023-11-21T00:09:18;0.37;93.69
69546;SHT31;56766;52.260;20.746;2023-11-21T00:11:46;0.37;93.69
69546;SHT31;56766;52.260;20.746;2023-11-21T00:14:12;0.36;93.69
69546;SHT31;56766;52.260;20.746;2023-11-21T00:16:43;0.35;93.70
69546;SHT31;56766;52.260;20.746;2023-11-21T00:19:09;0.34;93.70
69546;SHT31;56766;52.260;20.746;2023-11-21T00:21:36;0.32;93.70
69546;SHT31;56766;52.260;20.746;2023-11-21T00:24:04;0.32;93.70
69546;SHT31;56766;52.260;20.746;2023-11-21T00:26:32;0.34;93.72
69546;SHT31;56766;52.260;20.746;2023-11-21T00:29:03;0.29;93.64
69546;SHT31;56766;52.260;20.746;2023-11-21T00:31:30;0.26;93.60
69546;SHT31;56766;52.260;20.746;2023-11-21T00:33:57;0.25;93.62
69546;SHT31;56766;52.260;20.746;2023-11-21T00:36:25;0.25;93.62
69546;SHT31;56766;52.260;20.746;2023-11-21T00:38:52;0.26;93.66
69546;SHT31;56766;52.260;20.746;2023-11-21T00:41:19;0.23;93.60
69546;SHT31;56766;52.260;20.746;2023-11-21T00:43:46;0.24;93.67
69546;SHT31;56766;52.260;20.746;2023-11-21T00:46:12;0.23;93.66
69546;SHT31;56766;52.260;20.746;2023-11-21T00:48:40;0.19;93.58
69546;SHT31;56766;52.260;20.746;2023-11-21T00:51:06;0.17;93.59
69546;SHT31;56766;52.260;20.746;2023-11-21T00:53:33;0.19;93.65
69546;SHT31;56766;52.260;20.746;2023-11-21T00:56:00;0.20;93.70
69546;SHT31;56766;52.260;20.746;2023-11-21T00:58:27;0.21;93.69
69546;SHT31;56766;52.260;20.746;2023-11-21T01:00:54;0.21;93.68
69546;SHT31;56766;52.260;20.746;2023-11-21T01:03:21;0.21;93.66
69546;SHT31;56766;52.260;20.746;2023-11-21T01:05:48;0.19;93.62
69546;SHT31;56766;52.260;20.746;2023-11-21T01:08:18;0.14;93.59
69546;SHT31;56766;52.260;20.746;2023-11-21T01:10:45;0.10;93.49
69546;SHT31;56766;52.260;20.746;2023-11-21T01:13:12;0.07;93.48
69546;SHT31;56766;52.260;20.746;2023-11-21T01:15:41;0.07;93.54
69546;SHT31;56766;52.260;20.746;2023-11-21T01:18:08;0.04;93.50
69546;SHT31;56766;52.260;20.746;2023-11-21T01:20:35;0.04;93.56
69546;SHT31;56766;52.260;20.746;2023-11-21T01:23:01;0.04;93.60
69546;SHT31;56766;52.260;20.746;2023-11-21T01:25:29;0.04;93.58
69546;SHT31;56766;52.260;20.746;2023-11-21T01:27:55;0.05;93.60
69546;SHT31;56766;52.260;20.746;2023-11-21T01:30:22;0.04;93.52
69546;SHT31;56766;52.260;20.746;2023-11-21T01:32:49;0.06;93.53
69546;SHT31;56766;52.260;20.746;2023-11-21T01:35:16;0.07;93.56
69546;SHT31;56766;52.260;20.746;2023-11-21T01:37:44;0.07;93.60
69546;SHT31;56766;52.260;20.746;2023-11-21T01:40:11;0.10;93.63
69546;SHT31;56766;52.260;20.746;2023-11-21T01:42:41;0.11;93.65
69546;SHT31;56766;52.260;20.746;2023-11-21T01:45:10;0.11;93.59
69546;SHT31;56766;52.260;20.746;2023-11-21T01:47:41;0.09;93.52
69546;SHT31;56766;52.260;20.746;2023-11-21T01:50:16;0.05;93.45
69546;SHT31;56766;52.260;20.746;2023-11-21T01:52:46;0.01;93.44
69546;SHT31;56766;52.260;20.746;2023-11-21T01:55:16;0.00;93.41
69546;SHT31;56766;52.260;20.746;2023-11-21T01:57:46;-0.01;93.41
69546;SHT31;56766;52.260;20.746;2023-11-21T02:00:13;-0.01;93.45
69546;SHT31;56766;52.260;20.746;2023-11-21T02:02:47;0.00;93.47
69546;SHT31;56766;52.260;20.746;2023-11-21T02:05:16;0.05;93.56
69546;SHT31;56766;52.260;20.746;2023-11-21T02:07:46;0.09;93.60
69546;SHT31;56766;52.260;20.746;2023-11-21T02:10:18;0.08;93.55
69546;SHT31;56766;52.260;20.746;2023-11-21T02:12:50;0.04;93.47
69546;SHT31;56766;52.260;20.746;2023-11-21T02:15:17;0.01;93.39
69546;SHT31;56766;52.260;20.746;2023-11-21T02:17:50;-0.01;93.39
69546;SHT31;56766;52.260;20.746;2023-11-21T02:20:23;-0.03;93.37
69546;SHT31;56766;52.260;20.746;2023-11-21T02:22:53;-0.05;93.40
69546;SHT31;56766;52.260;20.746;2023-11-21T02:25:32;-0.04;93.43
69546;SHT31;56766;52.260;20.746;2023-11-21T02:28:01;-0.05;93.42
69546;SHT31;56766;52.260;20.746;2023-11-21T02:30:29;-0.05;93.40
69546;SHT31;56766;52.260;20.746;2023-11-21T02:33:01;-0.07;93.40
69546;SHT31;56766;52.260;20.746;2023-11-21T02:35:28;-0.10;93.36
69546;SHT31;56766;52.260;20.746;2023-11-21T02:37:57;-0.13;93.32
69546;SHT31;56766;52.260;20.746;2023-11-21T02:40:24;-0.16;93.25
69546;SHT31;56766;52.260;20.746;2023-11-21T02:42:54;-0.17;93.28
69546;SHT31;56766;52.260;20.746;2023-11-21T02:45:21;-0.16;93.29
69546;SHT31;56766;52.260;20.746;2023-11-21T02:47:48;-0.15;93.30
69546;SHT31;56766;52.260;20.746;2023-11-21T02:50:16;-0.16;93.25
69546;SHT31;56766;52.260;20.746;2023-11-21T02:52:45;-0.18;93.21
69546;SHT31;56766;52.260;20.746;2023-11-21T02:55:12;-0.15;93.27
69546;SHT31;56766;52.260;20.746;2023-11-21T02:57:38;-0.16;93.30
69546;SHT31;56766;52.260;20.746;2023-11-21T03:00:06;-0.18;93.22
69546;SHT31;56766;52.260;20.746;2023-11-21T03:02:42;-0.20;93.21
69546;SHT31;56766;52.260;20.746;2023-11-21T03:05:09;-0.24;93.21
69546;SHT31;56766;52.260;20.746;2023-11-21T03:07:37;-0.26;93.20
69546;SHT31;56766;52.260;20.746;2023-11-21T03:10:07;-0.28;93.18
69546;SHT31;56766;52.260;20.746;2023-11-21T03:12:38;-0.28;93.20
69546;SHT31;56766;52.260;20.746;2023-11-21T03:15:06;-0.30;93.20
69546;SHT31;56766;52.260;20.746;2023-11-21T03:17:34;-0.30;93.20
69546;SHT31;56766;52.260;20.746;2023-11-21T03:20:01;-0.28;93.24
69546;SHT31;56766;52.260;20.746;2023-11-21T03:22:30;-0.26;93.28
69546;SHT31;56766;52.260;20.746;2023-11-21T03:24:57;-0.27;93.22
69546;SHT31;56766;52.260;20.746;2023-11-21T03:27:24;-0.29;93.20
69546;SHT31;56766;52.260;20.746;2023-11-21T03:29:51;-0.31;93.22
69546;SHT31;56766;52.260;20.746;2023-11-21T03:32:18;-0.30;93.26
69546;SHT31;56766;52.260;20.746;2023-11-21T03:34:56;-0.30;93.29
69546;SHT31;56766;52.260;20.746;2023-11-21T03:37:24;-0.29;93.34
69546;SHT31;56766;52.260;20.746;2023-11-21T03:39:57;-0.34;93.29
69546;SHT31;56766;52.260;20.746;2023-11-21T03:42:23;-0.35;93.31
69546;SHT31;56766;52.260;20.746;2023-11-21T03:44:53;-0.37;93.35
69546;SHT31;56766;52.260;20.746;2023-11-21T03:47:19;-0.40;93.30
69546;SHT31;56766;52.260;20.746;2023-11-21T03:49:46;-0.40;93.36
69546;SHT31;56766;52.260;20.746;2023-11-21T03:52:13;-0.34;93.45
69546;SHT31;56766;52.260;20.746;2023-11-21T03:54:40;-0.17;93.41
69546;SHT31;56766;52.260;20.746;2023-11-21T03:57:06;-0.11;93.44
69546;SHT31;56766;52.260;20.746;2023-11-21T03:59:33;-0.13;93.48
69546;SHT31;56766;52.260;20.746;2023-11-21T04:02:00;-0.15;93.47
69546;SHT31;56766;52.260;20.746;2023-11-21T04:04:27;-0.17;93.44
69546;SHT31;56766;52.260;20.746;2023-11-21T04:06:53;-0.17;93.48
69546;SHT31;56766;52.260;20.746;2023-11-21T04:09:20;-0.17;93.50
69546;SHT31;56766;52.260;20.746;2023-11-21T04:11:47;-0.17;93.50
69546;SHT31;56766;52.260;20.746;2023-11-21T04:14:14;-0.18;93.50
69546;SHT31;56766;52.260;20.746;2023-11-21T04:16:41;-0.18;93.50
69546;SHT31;56766;52.260;20.746;2023-11-21T04:19:08;-0.22;93.45
69546;SHT31;56766;52.260;20.746;2023-11-21T04:21:41;-0.29;93.39
69546;SHT31;56766;52.260;20.746;2023-11-21T04:24:08;-0.31;93.43
69546;SHT31;56766;52.260;20.746;2023-11-21T04:26:36;-0.32;93.50
69546;SHT31;56766;52.260;20.746;2023-11-21T04:29:03;-0.31;93.60
69546;SHT31;56766;52.260;20.746;2023-11-21T04:31:30;-0.30;93.64
69546;SHT31;56766;52.260;20.746;2023-11-21T04:34:00;-0.31;93.64
69546;SHT31;56766;52.260;20.746;2023-11-21T04:36:27;-0.33;93.63
69546;SHT31;56766;52.260;20.746;2023-11-21T04:38:55;-0.31;93.72
69546;SHT31;56766;52.260;20.746;2023-11-21T04:41:21;-0.30;93.72
69546;SHT31;56766;52.260;20.746;2023-11-21T04:43:48;-0.31;93.70
69546;SHT31;56766;52.260;20.746;2023-11-21T04:46:15;-0.33;93.64
69546;SHT31;56766;52.260;20.746;2023-11-21T04:48:42;-0.36;93.60
69546;SHT31;56766;52.260;20.746;2023-11-21T04:51:09;-0.38;93.55
69546;SHT31;56766;52.260;20.746;2023-11-21T04:53:38;-0.40;93.58
69546;SHT31;56766;52.260;20.746;2023-11-21T04:56:06;-0.39;93.62
69546;SHT31;56766;52.260;20.746;2023-11-21T04:58:33;-0.41;93.60
69546;SHT31;56766;52.260;20.746;2023-11-21T05:00:59;-0.43;93.60
69546;SHT31;56766;52.260;20.746;2023-11-21T05:03:26;-0.44;93.54
69546;SHT31;56766;52.260;20.746;2023-11-21T05:05:52;-0.42;93.62
69546;SHT31;56766;52.260;20.746;2023-11-21T05:08:19;-0.42;93.55
69546;SHT31;56766;52.260;20.746;2023-11-21T05:10:48;-0.43;93.51
69546;SHT31;56766;52.260;20.746;2023-11-21T05:13:16;-0.43;93.52
69546;SHT31;56766;52.260;20.746;2023-11-21T05:15:44;-0.43;93.49
69546;SHT31;56766;52.260;20.746;2023-11-21T05:18:11;-0.46;93.38
69546;SHT31;56766;52.260;20.746;2023-11-21T05:20:40;-0.47;93.33
69546;SHT31;56766;52.260;20.746;2023-11-21T05:23:07;-0.49;93.28
69546;SHT31;56766;52.260;20.746;2023-11-21T05:25:34;-0.52;93.19
69546;SHT31;56766;52.260;20.746;2023-11-21T05:28:01;-0.56;93.10
69546;SHT31;56766;52.260;20.746;2023-11-21T05:30:30;-0.57;93.09
69546;SHT31;56766;52.260;20.746;2023-11-21T05:32:57;-0.59;93.09
69546;SHT31;56766;52.260;20.746;2023-11-21T05:35:24;-0.57;93.10
69546;SHT31;56766;52.260;20.746;2023-11-21T05:37:50;-0.56;93.10
69546;SHT31;56766;52.260;20.746;2023-11-21T05:40:17;-0.57;93.05
69546;SHT31;56766;52.260;20.746;2023-11-21T05:42:44;-0.60;93.02
69546;SHT31;56766;52.260;20.746;2023-11-21T05:45:11;-0.61;93.04
69546;SHT31;56766;52.260;20.746;2023-11-21T05:47:43;-0.62;93.07
69546;SHT31;56766;52.260;20.746;2023-11-21T05:50:14;-0.64;93.01
69546;SHT31;56766;52.260;20.746;2023-11-21T05:52:46;-0.64;93.10
69546;SHT31;56766;52.260;20.746;2023-11-21T05:55:14;-0.64;93.08
69546;SHT31;56766;52.260;20.746;2023-11-21T05:57:43;-0.64;93.09
69546;SHT31;56766;52.260;20.746;2023-11-21T06:00:12;-0.67;93.00
69546;SHT31;56766;52.260;20.746;2023-11-21T06:02:59;-0.68;93.01
69546;SHT31;56766;52.260;20.746;2023-11-21T06:05:26;-0.68;93.01
69546;SHT31;56766;52.260;20.746;2023-11-21T06:07:55;-0.66;93.09
69546;SHT31;56766;52.260;20.746;2023-11-21T06:10:25;-0.66;93.06
69546;SHT31;56766;52.260;20.746;2023-11-21T06:12:52;-0.69;93.02
69546;SHT31;56766;52.260;20.746;2023-11-21T06:15:19;-0.66;93.08
69546;SHT31;56766;52.260;20.746;2023-11-21T06:17:49;-0.64;93.10
69546;SHT31;56766;52.260;20.746;2023-11-21T06:20:18;-0.61;93.19
69546;SHT31;56766;52.260;20.746;2023-11-21T06:22:47;-0.62;93.09
69546;SHT31;56766;52.260;20.746;2023-11-21T06:25:15;-0.63;93.05
69546;SHT31;56766;52.260;20.746;2023-11-21T06:27:44;-0.63;93.02
69546;SHT31;56766;52.260;20.746;2023-11-21T06:30:13;-0.63;93.00
69546;SHT31;56766;52.260;20.746;2023-11-21T06:32:42;-0.62;93.09
69546;SHT31;56766;52.260;20.746;2023-11-21T06:35:12;-0.60;93.05
69546;SHT31;56766;52.260;20.746;2023-11-21T06:37:39;-0.59;93.07
69546;SHT31;56766;52.260;20.746;2023-11-21T06:40:06;-0.55;93.11
69546;SHT31;56766;52.260;20.746;2023-11-21T06:42:34;-0.53;93.14
69546;SHT31;56766;52.260;20.746;2023-11-21T06:45:00;-0.53;93.07
69546;SHT31;56766;52.260;20.746;2023-11-21T06:47:30;-0.54;93.06
69546;SHT31;56766;52.260;20.746;2023-11-21T06:49:57;-0.53;93.09
69546;SHT31;56766;52.260;20.746;2023-11-21T06:52:25;-0.53;93.04
69546;SHT31;56766;52.260;20.746;2023-11-21T06:54:52;-0.56;92.93
69546;SHT31;56766;52.260;20.746;2023-11-21T06:57:18;-0.60;92.80
69546;SHT31;56766;52.260;20.746;2023-11-21T06:59:45;-0.61;92.86
69546;SHT31;56766;52.260;20.746;2023-11-21T07:02:12;-0.60;92.89
69546;SHT31;56766;52.260;20.746;2023-11-21T07:04:38;-0.57;92.91
69546;SHT31;56766;52.260;20.746;2023-11-21T07:07:06;-0.56;92.94
69546;SHT31;56766;52.260;20.746;2023-11-21T07:09:33;-0.56;92.89
69546;SHT31;56766;52.260;20.746;2023-11-21T07:12:00;-0.55;92.83
69546;SHT31;56766;52.260;20.746;2023-11-21T07:14:27;-0.55;92.90
69546;SHT31;56766;52.260;20.746;2023-11-21T07:16:54;-0.55;92.86
69546;SHT31;56766;52.260;20.746;2023-11-21T07:19:21;-0.56;92.82
69546;SHT31;56766;52.260;20.746;2023-11-21T07:21:48;-0.55;92.82
69546;SHT31;56766;52.260;20.746;2023-11-21T07:24:17;-0.56;92.79
69546;SHT31;56766;52.260;20.746;2023-11-21T07:26:44;-0.56;92.79
69546;SHT31;56766;52.260;20.746;2023-11-21T07:29:11;-0.59;92.71
69546;SHT31;56766;52.260;20.746;2023-11-21T07:31:38;-0.59;92.69
69546;SHT31;56766;52.260;20.746;2023-11-21T07:34:04;-0.61;92.61
69546;SHT31;56766;52.260;20.746;2023-11-21T07:36:31;-0.61;92.66
69546;SHT31;56766;52.260;20.746;2023-11-21T07:38:58;-0.59;92.66
69546;SHT31;56766;52.260;20.746;2023-11-21T07:41:24;-0.58;92.66
69546;SHT31;56766;52.260;20.746;2023-11-21T07:43:51;-0.58;92.60
69546;SHT31;56766;52.260;20.746;2023-11-21T07:46:18;-0.58;92.65
69546;SHT31;56766;52.260;20.746;2023-11-21T07:48:45;-0.57;92.64
69546;SHT31;56766;52.260;20.746;2023-11-21T07:51:12;-0.55;92.60
69546;SHT31;56766;52.260;20.746;2023-11-21T07:53:39;-0.55;92.60
69546;SHT31;56766;52.260;20.746;2023-11-21T07:56:07;-0.51;92.59
69546;SHT31;56766;52.260;20.746;2023-11-21T07:58:36;-0.49;92.57
69546;SHT31;56766;52.260;20.746;2023-11-21T08:01:03;-0.47;92.54
69546;SHT31;56766;52.260;20.746;2023-11-21T08:03:31;-0.44;92.52
69546;SHT31;56766;52.260;20.746;2023-11-21T08:05:58;-0.42;92.49
69546;SHT31;56766;52.260;20.746;2023-11-21T08:08:26;-0.44;92.34
69546;SHT31;56766;52.260;20.746;2023-11-21T08:10:54;-0.42;92.36
69546;SHT31;56766;52.260;20.746;2023-11-21T08:13:27;-0.38;92.33
69546;SHT31;56766;52.260;20.746;2023-11-21T08:15:56;-0.36;92.32
69546;SHT31;56766;52.260;20.746;2023-11-21T08:18:28;-0.32;92.40
69546;SHT31;56766;52.260;20.746;2023-11-21T08:20:56;-0.31;92.35
69546;SHT31;56766;52.260;20.746;2023-11-21T08:23:24;-0.31;92.21
69546;SHT31;56766;52.260;20.746;2023-11-21T08:25:55;-0.29;92.20
69546;SHT31;56766;52.260;20.746;2023-11-21T08:28:22;-0.27;92.20
69546;SHT31;56766;52.260;20.746;2023-11-21T08:30:52;-0.26;92.12
69546;SHT31;56766;52.260;20.746;2023-11-21T08:33:20;-0.26;92.10
69546;SHT31;56766;52.260;20.746;2023-11-21T08:35:47;-0.24;92.10
69546;SHT31;56766;52.260;20.746;2023-11-21T08:38:15;-0.22;92.07
69546;SHT31;56766;52.260;20.746;2023-11-21T08:40:41;-0.22;91.98
69546;SHT31;56766;52.260;20.746;2023-11-21T08:43:08;-0.18;92.01
69546;SHT31;56766;52.260;20.746;2023-11-21T08:45:35;-0.15;92.01
69546;SHT31;56766;52.260;20.746;2023-11-21T08:48:02;-0.13;91.95
69546;SHT31;56766;52.260;20.746;2023-11-21T08:50:29;-0.09;92.01
69546;SHT31;56766;52.260;20.746;2023-11-21T08:52:55;-0.07;91.84
69546;SHT31;56766;52.260;20.746;2023-11-21T08:55:22;-0.10;91.72
69546;SHT31;56766;52.260;20.746;2023-11-21T08:57:49;-0.07;91.78
69546;SHT31;56766;52.260;20.746;2023-11-21T09:00:16;-0.03;91.82
69546;SHT31;56766;52.260;20.746;2023-11-21T09:02:44;0.01;91.86
69546;SHT31;56766;52.260;20.746;2023-11-21T09:05:12;0.03;91.77
69546;SHT31;56766;52.260;20.746;2023-11-21T09:07:41;0.03;91.60
69546;SHT31;56766;52.260;20.746;2023-11-21T09:10:08;0.08;91.59
69546;SHT31;56766;52.260;20.746;2023-11-21T09:12:37;0.11;91.50
69546;SHT31;56766;52.260;20.746;2023-11-21T09:15:05;0.13;91.36
69546;SHT31;56766;52.260;20.746;2023-11-21T09:17:34;0.12;91.28
69546;SHT31;56766;52.260;20.746;2023-11-21T09:20:01;0.12;91.23
69546;SHT31;56766;52.260;20.746;2023-11-21T09:22:30;0.13;91.19
69546;SHT31;56766;52.260;20.746;2023-11-21T09:24:58;0.14;91.12
69546;SHT31;56766;52.260;20.746;2023-11-21T09:27:25;0.18;91.25
69546;SHT31;56766;52.260;20.746;2023-11-21T09:29:54;0.24;91.36
69546;SHT31;56766;52.260;20.746;2023-11-21T09:32:21;0.27;91.32
69546;SHT31;56766;52.260;20.746;2023-11-21T09:34:50;0.26;91.13
69546;SHT31;56766;52.260;20.746;2023-11-21T09:37:17;0.22;90.96
69546;SHT31;56766;52.260;20.746;2023-11-21T09:39:45;0.23;90.87
69546;SHT31;56766;52.260;20.746;2023-11-21T09:42:23;0.27;90.94
69546;SHT31;56766;52.260;20.746;2023-11-21T09:45:15;0.31;91.00
69546;SHT31;56766;52.260;20.746;2023-11-21T09:47:45;0.37;91.07
69546;SHT31;56766;52.260;20.746;2023-11-21T09:50:17;0.40;90.93
69546;SHT31;56766;52.260;20.746;2023-11-21T09:53:12;0.40;90.78
69546;SHT31;56766;52.260;20.746;2023-11-21T09:55:44;0.39;90.62
69546;SHT31;56766;52.260;20.746;2023-11-21T09:58:14;0.39;90.59
69546;SHT31;56766;52.260;20.746;2023-11-21T10:00:43;0.40;90.55
69546;SHT31;56766;52.260;20.746;2023-11-21T10:03:11;0.43;90.52
69546;SHT31;56766;52.260;20.746;2023-11-21T10:05:43;0.41;90.13
69546;SHT31;56766;52.260;20.746;2023-11-21T10:08:12;0.40;90.17
69546;SHT31;56766;52.260;20.746;2023-11-21T10:10:49;0.43;90.33
69546;SHT31;56766;52.260;20.746;2023-11-21T10:13:19;0.44;90.21
69546;SHT31;56766;52.260;20.746;2023-11-21T10:15:51;0.41;90.01
69546;SHT31;56766;52.260;20.746;2023-11-21T10:18:20;0.41;90.08
69546;SHT31;56766;52.260;20.746;2023-11-21T10:20:49;0.41;89.99
69546;SHT31;56766;52.260;20.746;2023-11-21T10:23:20;0.42;89.89
69546;SHT31;56766;52.260;20.746;2023-11-21T10:25:50;0.49;90.04
69546;SHT31;56766;52.260;20.746;2023-11-21T10:28:18;0.50;89.96
69546;SHT31;56766;52.260;20.746;2023-11-21T10:30:47;0.49;89.84
69546;SHT31;56766;52.260;20.746;2023-11-21T10:33:13;0.48;89.86
69546;SHT31;56766;52.260;20.746;2023-11-21T10:35:44;0.49;89.96
69546;SHT31;56766;52.260;20.746;2023-11-21T10:38:21;0.47;89.72
69546;SHT31;56766;52.260;20.746;2023-11-21T10:40:51;0.39;89.53
69546;SHT31;56766;52.260;20.746;2023-11-21T10:43:18;0.39;89.80
69546;SHT31;56766;52.260;20.746;2023-11-21T10:45:45;0.41;89.95
69546;SHT31;56766;52.260;20.746;2023-11-21T10:48:14;0.45;90.04
69546;SHT31;56766;52.260;20.746;2023-11-21T10:50:43;0.46;89.83
69546;SHT31;56766;52.260;20.746;2023-11-21T10:53:11;0.51;89.86
69546;SHT31;56766;52.260;20.746;2023-11-21T10:55:39;0.50;89.63
69546;SHT31;56766;52.260;20.746;2023-11-21T10:58:06;0.49;89.63
69546;SHT31;56766;52.260;20.746;2023-11-21T11:00:33;0.46;89.70
69546;SHT31;56766;52.260;20.746;2023-11-21T11:03:01;0.48;89.89
69546;SHT31;56766;52.260;20.746;2023-11-21T11:05:29;0.49;89.85
69546;SHT31;56766;52.260;20.746;2023-11-21T11:08:08;0.50;89.75
69546;SHT31;56766;52.260;20.746;2023-11-21T11:10:38;0.48;89.51
69546;SHT31;56766;52.260;20.746;2023-11-21T11:13:06;0.46;89.55
69546;SHT31;56766;52.260;20.746;2023-11-21T11:15:33;0.46;89.67
69546;SHT31;56766;52.260;20.746;2023-11-21T11:18:02;0.43;89.67
69546;SHT31;56766;52.260;20.746;2023-11-21T11:20:35;0.33;89.35
69546;SHT31;56766;52.260;20.746;2023-11-21T11:26:12;0.28;89.54
69546;SHT31;56766;52.260;20.746;2023-11-21T11:29:10;0.23;89.45
69546;SHT31;56766;52.260;20.746;2023-11-21T11:34:48;0.21;89.50
69546;SHT31;56766;52.260;20.746;2023-11-21T11:37:23;0.19;89.47
69546;SHT31;56766;52.260;20.746;2023-11-21T11:39:50;0.17;89.46
69546;SHT31;56766;52.260;20.746;2023-11-21T11:42:17;0.18;89.44
69546;SHT31;56766;52.260;20.746;2023-11-21T11:44:47;0.18;89.31
69546;SHT31;56766;52.260;20.746;2023-11-21T11:50:02;0.16;89.31
69546;SHT31;56766;52.260;20.746;2023-11-21T11:52:39;0.19;89.44
69546;SHT31;56766;52.260;20.746;2023-11-21T11:55:12;0.21;89.41
69546;SHT31;56766;52.260;20.746;2023-11-21T11:57:42;0.22;89.17
69546;SHT31;56766;52.260;20.746;2023-11-21T12:00:21;0.25;89.17
69546;SHT31;56766;52.260;20.746;2023-11-21T12:03:02;0.31;89.26
69546;SHT31;56766;52.260;20.746;2023-11-21T12:05:32;0.34;89.23
69546;SHT31;56766;52.260;20.746;2023-11-21T12:08:04;0.34;89.24
69546;SHT31;56766;52.260;20.746;2023-11-21T12:10:35;0.35;89.29
69546;SHT31;56766;52.260;20.746;2023-11-21T12:13:09;0.36;89.25
69546;SHT31;56766;52.260;20.746;2023-11-21T12:15:39;0.37;89.29
69546;SHT31;56766;52.260;20.746;2023-11-21T12:18:08;0.37;89.19
69546;SHT31;56766;52.260;20.746;2023-11-21T12:20:34;0.37;89.26
69546;SHT31;56766;52.260;20.746;2023-11-21T12:23:13;0.38;89.21
69546;SHT31;56766;52.260;20.746;2023-11-21T12:25:41;0.37;89.04
69546;SHT31;56766;52.260;20.746;2023-11-21T12:28:28;0.37;88.88
69546;SHT31;56766;52.260;20.746;2023-11-21T12:30:54;0.41;88.91
69546;SHT31;56766;52.260;20.746;2023-11-21T12:33:23;0.41;88.83
69546;SHT31;56766;52.260;20.746;2023-11-21T12:35:52;0.44;88.98
69546;SHT31;56766;52.260;20.746;2023-11-21T12:38:20;0.50;89.18
69546;SHT31;56766;52.260;20.746;2023-11-21T12:40:47;0.53;89.13
69546;SHT31;56766;52.260;20.746;2023-11-21T12:43:13;0.54;89.16
69546;SHT31;56766;52.260;20.746;2023-11-21T12:45:40;0.53;89.10
69546;SHT31;56766;52.260;20.746;2023-11-21T12:48:15;0.51;89.17
69546;SHT31;56766;52.260;20.746;2023-11-21T12:50:47;0.49;89.16
69546;SHT31;56766;52.260;20.746;2023-11-21T12:53:19;0.46;89.05
69546;SHT31;56766;52.260;20.746;2023-11-21T12:55:46;0.41;89.01
69546;SHT31;56766;52.260;20.746;2023-11-21T12:58:17;0.39;89.20
69546;SHT31;56766;52.260;20.746;2023-11-21T13:00:48;0.38;89.27
69546;SHT31;56766;52.260;20.746;2023-11-21T13:03:17;0.34;89.24
69546;SHT31;56766;52.260;20.746;2023-11-21T13:05:48;0.28;89.15
69546;SHT31;56766;52.260;20.746;2023-11-21T13:08:21;0.28;89.22
69546;SHT31;56766;52.260;20.746;2023-11-21T13:10:55;0.28;89.39
69546;SHT31;56766;52.260;20.746;2023-11-21T13:13:24;0.27;89.31
69546;SHT31;56766;52.260;20.746;2023-11-21T13:15:56;0.26;89.30
69546;SHT31;56766;52.260;20.746;2023-11-21T13:18:32;0.21;89.12
69546;SHT31;56766;52.260;20.746;2023-11-21T13:21:01;0.16;89.13
69546;SHT31;56766;52.260;20.746;2023-11-21T13:23:36;0.11;89.16
69546;SHT31;56766;52.260;20.746;2023-11-21T13:26:04;0.06;88.99
69546;SHT31;56766;52.260;20.746;2023-11-21T13:28:32;-0.00;88.75
69546;SHT31;56766;52.260;20.746;2023-11-21T13:31:00;-0.02;88.88
69546;SHT31;56766;52.260;20.746;2023-11-21T13:33:35;-0.05;88.86
69546;SHT31;56766;52.260;20.746;2023-11-21T13:36:07;-0.09;88.77
69546;SHT31;56766;52.260;20.746;2023-11-21T13:38:35;-0.08;88.95
69546;SHT31;56766;52.260;20.746;2023-11-21T13:41:04;-0.08;89.06
69546;SHT31;56766;52.260;20.746;2023-11-21T13:43:33;-0.05;89.16
69546;SHT31;56766;52.260;20.746;2023-11-21T13:46:00;-0.02;89.21
69546;SHT31;56766;52.260;20.746;2023-11-21T13:48:39;-0.01;89.33
69546;SHT31;56766;52.260;20.746;2023-11-21T13:51:09;-0.03;89.39
69546;SHT31;56766;52.260;20.746;2023-11-21T13:53:48;-0.05;89.39
69546;SHT31;56766;52.260;20.746;2023-11-21T13:56:17;-0.08;89.49
69546;SHT31;56766;52.260;20.746;2023-11-21T13:58:48;-0.08;89.58
69546;SHT31;56766;52.260;20.746;2023-11-21T14:01:19;-0.15;89.25
69546;SHT31;56766;52.260;20.746;2023-11-21T14:03:56;-0.22;89.11
69546;SHT31;56766;52.260;20.746;2023-11-21T14:06:29;-0.26;89.21
69546;SHT31;56766;52.260;20.746;2023-11-21T14:09:02;-0.26;89.35
69546;SHT31;56766;52.260;20.746;2023-11-21T14:11:33;-0.29;89.40
69546;SHT31;56766;52.260;20.746;2023-11-21T14:14:00;-0.31;89.45
69546;SHT31;56766;52.260;20.746;2023-11-21T14:16:28;-0.32;89.55
69546;SHT31;56766;52.260;20.746;2023-11-21T14:18:55;-0.34;89.60
69546;SHT31;56766;52.260;20.746;2023-11-21T14:21:36;-0.36;89.54
69546;SHT31;56766;52.260;20.746;2023-11-21T14:24:03;-0.38;89.55
69546;SHT31;56766;52.260;20.746;2023-11-21T14:26:35;-0.41;89.64
69546;SHT31;56766;52.260;20.746;2023-11-21T14:29:02;-0.42;89.70
69546;SHT31;56766;52.260;20.746;2023-11-21T14:31:29;-0.45;89.70
69546;SHT31;56766;52.260;20.746;2023-11-21T14:33:57;-0.47;89.73
69546;SHT31;56766;52.260;20.746;2023-11-21T14:36:25;-0.48;89.79
69546;SHT31;56766;52.260;20.746;2023-11-21T14:38:52;-0.50;89.78
69546;SHT31;56766;52.260;20.746;2023-11-21T14:41:19;-0.51;89.87
69546;SHT31;56766;52.260;20.746;2023-11-21T14:43:45;-0.51;89.96
69546;SHT31;56766;52.260;20.746;2023-11-21T14:46:16;-0.51;90.00
69546;SHT31;56766;52.260;20.746;2023-11-21T14:48:45;-0.52;90.00
69546;SHT31;56766;52.260;20.746;2023-11-21T14:51:25;-0.52;90.00
69546;SHT31;56766;52.260;20.746;2023-11-21T14:53:54;-0.54;89.99
69546;SHT31;56766;52.260;20.746;2023-11-21T14:56:21;-0.55;89.96
69546;SHT31;56766;52.260;20.746;2023-11-21T14:59:01;-0.55;89.99
69546;SHT31;56766;52.260;20.746;2023-11-21T15:01:42;-0.58;89.84
69546;SHT31;56766;52.260;20.746;2023-11-21T15:04:11;-0.59;89.80
69546;SHT31;56766;52.260;20.746;2023-11-21T15:06:49;-0.63;89.73
69546;SHT31;56766;52.260;20.746;2023-11-21T15:09:18;-0.64;89.68
69546;SHT31;56766;52.260;20.746;2023-11-21T15:12:20;-0.66;89.71
69546;SHT31;56766;52.260;20.746;2023-11-21T15:14:51;-0.65;89.78
69546;SHT31;56766;52.260;20.746;2023-11-21T15:17:20;-0.67;89.76
69546;SHT31;56766;52.260;20.746;2023-11-21T15:19:53;-0.69;89.70
69546;SHT31;56766;52.260;20.746;2023-11-21T15:22:21;-0.72;89.58
69546;SHT31;56766;52.260;20.746;2023-11-21T15:24:49;-0.73;89.55
69546;SHT31;56766;52.260;20.746;2023-11-21T15:27:16;-0.74;89.59
69546;SHT31;56766;52.260;20.746;2023-11-21T15:29:44;-0.74;89.68
69546;SHT31;56766;52.260;20.746;2023-11-21T15:32:11;-0.75;89.59
69546;SHT31;56766;52.260;20.746;2023-11-21T15:34:38;-0.76;89.60
69546;SHT31;56766;52.260;20.746;2023-11-21T15:37:07;-0.76;89.52
69546;SHT31;56766;52.260;20.746;2023-11-21T15:39:38;-0.76;89.61
69546;SHT31;56766;52.260;20.746;2023-11-21T15:42:05;-0.72;89.78
69546;SHT31;56766;52.260;20.746;2023-11-21T15:44:33;-0.72;89.80